createdAt,value
2022-08-22T00:00:24.598Z,5.13
2022-08-22T00:02:47.779Z,5.38
2022-08-22T00:03:00.025Z,4.88
2022-08-22T00:03:16.174Z,4.93
2022-08-22T00:06:03.686Z,3.17
2022-08-22T00:08:55.592Z,3.45
2022-08-22T00:11:50.802Z,3.85
2022-08-22T00:14:38.613Z,3.28
2022-08-22T00:17:35.300Z,3.42
2022-08-22T00:20:10.420Z,3.83
2022-08-22T00:22:39.883Z,3.65
2022-08-22T00:25:37.716Z,3.50
2022-08-22T00:28:16.888Z,4.20
2022-08-22T00:30:59.313Z,3.50
2022-08-22T00:33:48.701Z,5.25
2022-08-22T00:36:22.992Z,5.00
2022-08-22T00:39:14.499Z,2.92
2022-08-22T00:41:59.717Z,3.30
2022-08-22T00:44:59.587Z,3.78
2022-08-22T00:47:38.115Z,4.72
2022-08-22T00:50:33.491Z,2.50
2022-08-22T00:53:36.884Z,5.38
2022-08-22T00:56:12.522Z,2.95
2022-08-22T00:58:57.496Z,3.45
2022-08-22T01:01:33.647Z,4.55
2022-08-22T01:04:18.166Z,4.78
2022-08-22T01:07:01.274Z,3.50
2022-08-22T01:09:41.242Z,3.22
2022-08-22T01:12:16.031Z,3.75
2022-08-22T01:15:05.677Z,2.95
2022-08-22T01:17:51.934Z,4.65
2022-08-22T01:20:50.327Z,3.85
2022-08-22T01:23:47.306Z,3.00
2022-08-22T01:26:32.589Z,3.08
2022-08-22T01:29:30.268Z,2.10
2022-08-22T01:32:11.741Z,2.85
2022-08-22T01:34:56.324Z,2.95
2022-08-22T01:37:44.019Z,3.42
2022-08-22T01:40:19.545Z,3.17
2022-08-22T01:43:04.485Z,3.78
2022-08-22T01:45:41.392Z,3.50
2022-08-22T01:48:10.528Z,2.75
2022-08-22T01:50:52.332Z,2.80
2022-08-22T01:53:37.779Z,3.08
2022-08-22T01:56:11.201Z,5.30
2022-08-22T01:58:45.346Z,2.53
2022-08-22T02:01:20.972Z,4.07
2022-08-22T02:04:06.107Z,4.72
2022-08-22T02:06:51.661Z,2.92
2022-08-22T02:09:42.985Z,3.60
2022-08-22T02:12:22.276Z,3.53
2022-08-22T02:15:04.183Z,3.30
2022-08-22T02:17:51.264Z,5.18
2022-08-22T02:20:25.085Z,2.35
2022-08-22T02:22:57.762Z,6.28
2022-08-22T02:25:28.870Z,4.25
2022-08-22T02:28:08.088Z,2.63
2022-08-22T02:30:55.066Z,2.72
2022-08-22T02:33:43.784Z,5.25
2022-08-22T02:36:25.189Z,2.63
2022-08-22T02:39:13.664Z,3.60
2022-08-22T02:42:11.651Z,2.22
2022-08-22T02:45:10.465Z,2.90
2022-08-22T02:47:56.913Z,3.03
2022-08-22T02:50:43.646Z,2.95
2022-08-22T02:53:23.910Z,2.38
2022-08-22T02:55:56.763Z,3.08
2022-08-22T02:58:45.124Z,3.67
2022-08-22T03:01:17.259Z,2.67
2022-08-22T03:03:47.009Z,5.45
2022-08-22T03:06:41.073Z,2.75
2022-08-22T03:09:27.363Z,2.72
2022-08-22T03:12:32.458Z,3.72
2022-08-22T03:15:24.563Z,4.75
2022-08-22T03:18:18.912Z,2.33
2022-08-22T03:20:54.008Z,2.85
2022-08-22T03:23:26.628Z,3.10
2022-08-22T03:26:08.816Z,3.10
2022-08-22T03:28:59.191Z,3.33
2022-08-22T03:31:27.797Z,1.92
2022-08-22T03:34:22.396Z,3.80
2022-08-22T03:37:04.249Z,3.08
2022-08-22T03:39:57.710Z,2.40
2022-08-22T03:42:43.086Z,5.03
2022-08-22T03:45:21.622Z,2.53
2022-08-22T03:48:15.290Z,2.67
2022-08-22T03:50:48.140Z,1.55
2022-08-22T03:53:35.804Z,3.15
2022-08-22T03:56:25.770Z,2.90
2022-08-22T03:59:11.683Z,3.25
2022-08-22T04:01:47.888Z,1.92
2022-08-22T04:04:36.744Z,2.83
2022-08-22T04:07:15.792Z,2.22
2022-08-22T04:10:05.665Z,3.00
2022-08-22T04:13:09.895Z,1.83
2022-08-22T04:16:05.939Z,2.35
2022-08-22T04:18:35.170Z,2.42
2022-08-22T04:21:26.144Z,2.20
2022-08-22T04:24:04.961Z,2.03
2022-08-22T04:26:46.348Z,2.60
2022-08-22T04:29:19.843Z,3.03
2022-08-22T04:32:15.080Z,2.28
2022-08-22T04:35:06.991Z,2.75
2022-08-22T04:37:56.409Z,3.25
2022-08-22T04:40:34.397Z,2.08
2022-08-22T04:43:06.571Z,2.53
2022-08-22T04:45:39.617Z,3.90
2022-08-22T04:48:11.064Z,3.00
2022-08-22T04:50:51.968Z,3.28
2022-08-22T04:53:48.592Z,2.50
2022-08-22T04:56:43.960Z,1.98
2022-08-22T04:59:16.551Z,2.78
2022-08-22T05:01:47.980Z,1.23
2022-08-22T05:04:27.554Z,3.63
2022-08-22T05:06:59.873Z,2.67
2022-08-22T05:09:31.711Z,3.53
2022-08-22T05:12:04.979Z,3.13
2022-08-22T05:17:11.282Z,2.17
2022-08-22T05:19:50.632Z,1.77
2022-08-22T05:22:30.396Z,2.08
2022-08-22T05:25:03.976Z,2.10
2022-08-22T05:27:33.978Z,2.22
2022-08-22T05:30:04.693Z,1.42
2022-08-22T05:32:48.029Z,2.03
2022-08-22T05:35:16.588Z,2.45
2022-08-22T05:37:47.453Z,2.20
2022-08-22T05:40:26.591Z,1.83
2022-08-22T05:42:54.429Z,2.45
2022-08-22T05:45:21.557Z,2.67
2022-08-22T05:47:52.175Z,2.30
2022-08-22T05:50:26.840Z,1.52
2022-08-22T05:52:56.552Z,1.83
2022-08-22T05:55:57.120Z,2.42
2022-08-22T05:58:38.702Z,2.30
2022-08-22T06:01:28.652Z,1.83
2022-08-22T06:04:05.711Z,2.28
2022-08-22T06:06:39.137Z,3.13
2022-08-22T06:09:12.132Z,2.92
2022-08-22T06:11:52.045Z,6.50
2022-08-22T06:14:40.685Z,2.97
2022-08-22T06:17:18.131Z,2.03
2022-08-22T06:19:50.083Z,3.25
2022-08-22T06:22:28.180Z,3.30
2022-08-22T06:24:57.109Z,2.10
2022-08-22T06:27:27.135Z,2.15
2022-08-22T06:30:00.883Z,2.78
2022-08-22T06:32:58.231Z,1.50
2022-08-22T06:35:25.416Z,2.30
2022-08-22T06:37:55.901Z,2.22
2022-08-22T06:40:23.824Z,3.50
2022-08-22T06:42:51.746Z,1.92
2022-08-22T06:45:22.449Z,2.13
2022-08-22T06:47:53.756Z,2.20
2022-08-22T06:50:40.720Z,4.03
2022-08-22T06:53:15.952Z,2.80
2022-08-22T06:55:48.058Z,1.90
2022-08-22T06:58:22.076Z,2.45
2022-08-22T07:01:05.688Z,3.67
2022-08-22T07:03:46.135Z,3.13
2022-08-22T07:06:18.190Z,2.53
2022-08-22T07:08:45.340Z,2.75
2022-08-22T07:11:24.673Z,3.53
2022-08-22T07:14:05.460Z,4.75
2022-08-22T07:16:42.067Z,3.22
2022-08-22T07:19:10.496Z,4.45
2022-08-22T07:21:47.716Z,5.03
2022-08-22T07:24:18.754Z,4.00
2022-08-22T07:27:11.736Z,6.75
2022-08-22T07:29:50.368Z,3.83
2022-08-22T07:32:29.241Z,9.05
2022-08-22T07:35:10.849Z,10.15
2022-08-22T07:37:46.663Z,9.18
2022-08-22T07:40:25.694Z,9.50
2022-08-22T07:42:52.308Z,13.63
2022-08-22T07:45:37.128Z,11.07
2022-08-22T07:48:26.210Z,12.45
2022-08-22T07:51:08.300Z,9.07
2022-08-22T07:53:40.542Z,9.65
2022-08-22T07:56:11.693Z,7.18
2022-08-22T07:58:40.157Z,6.95
2022-08-22T08:01:09.798Z,9.43
2022-08-22T08:03:36.735Z,7.20
2022-08-22T08:06:03.822Z,7.00
2022-08-22T08:08:34.631Z,7.03
2022-08-22T08:11:03.610Z,8.32
2022-08-22T08:13:35.469Z,7.13
2022-08-22T08:16:05.272Z,6.00
2022-08-22T08:18:34.446Z,9.00
2022-08-22T08:21:05.419Z,8.55
2022-08-22T08:23:40.637Z,8.10
2022-08-22T08:26:10.804Z,7.18
2022-08-22T08:28:44.973Z,7.18
2022-08-22T08:31:14.704Z,7.60
2022-08-22T08:33:44.245Z,7.47
2022-08-22T08:36:45.100Z,9.07
2022-08-22T08:39:35.868Z,6.63
2022-08-22T08:42:24.380Z,5.55
2022-08-22T08:45:09.447Z,8.35
2022-08-22T08:47:41.860Z,8.50
2022-08-22T08:50:23.830Z,7.50
2022-08-22T08:52:58.580Z,6.85
2022-08-22T08:55:31.172Z,7.28
2022-08-22T08:58:06.840Z,6.22
2022-08-22T09:00:42.991Z,7.07
2022-08-22T09:03:30.541Z,7.70
2022-08-22T09:06:32.696Z,6.57
2022-08-22T09:09:20.632Z,7.03
2022-08-22T09:11:53.905Z,8.95
2022-08-22T09:14:45.229Z,5.88
2022-08-22T09:17:28.415Z,4.75
2022-08-22T09:20:22.924Z,7.22
2022-08-22T09:23:18.883Z,9.43
2022-08-22T09:26:05.798Z,8.10
2022-08-22T09:28:48.469Z,7.93
2022-08-22T09:31:16.910Z,6.93
2022-08-22T09:34:32.205Z,7.53
2022-08-22T09:37:04.485Z,5.68
2022-08-22T09:39:49.474Z,7.15
2022-08-22T09:42:44.932Z,6.57
2022-08-22T09:45:11.820Z,9.48
2022-08-22T09:47:51.227Z,5.25
2022-08-22T09:50:24.779Z,6.97
2022-08-22T09:52:59.085Z,7.38
2022-08-22T09:56:15.356Z,8.70
2022-08-22T09:59:14.861Z,6.40
2022-08-22T10:01:44.685Z,6.75
2022-08-22T10:04:14.286Z,7.60
2022-08-22T10:07:01.124Z,7.20
2022-08-22T10:09:56.095Z,6.95
2022-08-22T10:12:49.136Z,7.25
2022-08-22T10:15:31.597Z,5.97
2022-08-22T10:18:28.674Z,6.95
2022-08-22T10:21:12.237Z,6.80
2022-08-22T10:26:38.561Z,6.80
2022-08-22T10:29:30.251Z,4.70
2022-08-22T10:32:15.052Z,5.90
2022-08-22T10:34:46.593Z,5.90
2022-08-22T10:37:32.918Z,8.20
2022-08-22T10:40:06.070Z,6.35
2022-08-22T10:42:38.031Z,5.82
2022-08-22T10:45:07.579Z,6.32
2022-08-22T10:47:53.177Z,7.50
2022-08-22T10:50:31.036Z,6.85
2022-08-22T10:53:35.271Z,5.20
2022-08-22T10:56:21.541Z,6.22
2022-08-22T10:59:03.926Z,9.93
2022-08-22T11:01:37.477Z,7.43
2022-08-22T11:04:39.829Z,7.10
2022-08-22T11:07:50.218Z,6.80
2022-08-22T11:10:22.929Z,9.38
2022-08-22T11:15:52.956Z,7.57
2022-08-22T11:18:58.017Z,8.15
2022-08-22T11:21:41.846Z,5.85
2022-08-22T11:24:34.694Z,8.63
2022-08-22T11:27:37.966Z,3.65
2022-08-22T11:30:18.247Z,9.47
2022-08-22T11:33:13.878Z,7.65
2022-08-22T11:35:52.517Z,6.10
2022-08-22T11:38:36.276Z,6.35
2022-08-22T11:41:09.499Z,7.80
2022-08-22T11:46:23.729Z,7.03
2022-08-22T11:49:26.928Z,7.25
2022-08-22T11:52:32.134Z,5.75
2022-08-22T11:55:11.409Z,8.13
2022-08-22T11:57:47.642Z,6.97
2022-08-22T12:00:32.481Z,8.38
2022-08-22T12:03:25.060Z,6.65
2022-08-22T12:05:56.788Z,7.50
2022-08-22T12:08:52.068Z,7.80
2022-08-22T12:11:29.699Z,5.47
2022-08-22T12:14:13.515Z,8.40
2022-08-22T12:17:05.784Z,9.25
2022-08-22T12:19:58.900Z,6.22
2022-08-22T12:23:06.131Z,6.85
2022-08-22T12:25:57.580Z,6.80
2022-08-22T12:28:30.274Z,5.38
2022-08-22T12:31:27.488Z,7.25
2022-08-22T12:33:58.779Z,6.90
2022-08-22T12:36:59.691Z,8.90
2022-08-22T12:39:50.444Z,7.82
2022-08-22T12:42:37.168Z,7.28
2022-08-22T12:45:30.208Z,8.23
2022-08-22T12:48:15.599Z,5.00
2022-08-22T12:51:03.526Z,7.45
2022-08-22T12:54:04.526Z,5.63
2022-08-22T12:56:47.353Z,6.03
2022-08-22T12:59:26.195Z,6.57
2022-08-22T13:01:55.393Z,5.30
2022-08-22T13:04:32.467Z,6.30
2022-08-22T13:07:07.323Z,7.82
2022-08-22T13:09:39.514Z,8.02
2022-08-22T13:12:20.071Z,7.30
2022-08-22T13:14:53.257Z,5.85
2022-08-22T13:17:25.078Z,7.63
2022-08-22T13:19:55.583Z,7.77
2022-08-22T13:22:28.995Z,7.43
2022-08-22T13:25:00.660Z,7.80
2022-08-22T13:27:50.830Z,6.63
2022-08-22T13:30:24.351Z,7.18
2022-08-22T13:32:53.491Z,7.20
2022-08-22T13:35:24.435Z,10.02
2022-08-22T13:37:55.870Z,8.15
2022-08-22T13:40:29.098Z,9.85
2022-08-22T13:45:54.281Z,8.82
2022-08-22T13:48:23.702Z,6.55
2022-08-22T13:51:04.807Z,9.32
2022-08-22T13:54:00.378Z,8.65
2022-08-22T13:56:36.530Z,9.18
2022-08-22T13:59:05.947Z,8.80
2022-08-22T14:01:53.324Z,6.70
2022-08-22T14:04:35.768Z,5.35
2022-08-22T14:07:03.801Z,7.25
2022-08-22T14:09:54.683Z,6.55
2022-08-22T14:12:50.762Z,6.03
2022-08-22T14:15:45.285Z,8.75
2022-08-22T14:18:20.625Z,7.05
2022-08-22T14:21:17.402Z,4.72
2022-08-22T14:23:44.929Z,9.70
2022-08-22T14:26:33.106Z,7.28
2022-08-22T14:29:08.231Z,6.63
2022-08-22T14:31:35.172Z,7.13
2022-08-22T14:34:10.368Z,8.20
2022-08-22T14:36:55.121Z,6.88
2022-08-22T14:39:49.122Z,8.20
2022-08-22T14:42:20.053Z,6.85
2022-08-22T14:45:11.362Z,6.72
2022-08-22T14:47:55.406Z,6.57
2022-08-22T14:50:37.291Z,7.43
2022-08-22T14:53:07.980Z,8.95
2022-08-22T14:55:35.969Z,8.65
2022-08-22T14:58:06.499Z,8.27
2022-08-22T15:00:42.470Z,9.73
2022-08-22T15:03:20.443Z,7.03
2022-08-22T15:05:49.975Z,8.25
2022-08-22T15:08:27.539Z,6.55
2022-08-22T15:11:14.863Z,6.45
2022-08-22T15:13:50.763Z,10.98
2022-08-22T15:16:21.639Z,6.55
2022-08-22T15:18:52.100Z,8.85
2022-08-22T15:21:30.796Z,7.53
2022-08-22T15:24:04.739Z,7.45
2022-08-22T15:26:34.596Z,7.80
2022-08-22T15:29:15.215Z,6.90
2022-08-22T15:31:46.397Z,7.07
2022-08-22T15:34:30.877Z,8.45
2022-08-22T15:37:10.981Z,9.43
2022-08-22T15:40:12.797Z,10.65
2022-08-22T15:42:46.287Z,7.60
2022-08-22T15:45:33.969Z,7.50
2022-08-22T15:48:04.524Z,7.90
2022-08-22T15:50:35.401Z,7.70
2022-08-22T15:53:19.055Z,4.68
2022-08-22T15:58:48.622Z,8.18
2022-08-22T16:01:22.573Z,5.03
2022-08-22T16:04:02.604Z,7.38
2022-08-22T16:06:49.109Z,7.80
2022-08-22T16:09:29.082Z,8.27
2022-08-22T16:11:56.253Z,7.45
2022-08-22T16:14:35.011Z,8.65
2022-08-22T16:17:08.147Z,6.40
2022-08-22T16:22:05.571Z,7.82
2022-08-22T16:24:37.074Z,6.85
2022-08-22T16:27:21.602Z,7.05
2022-08-22T16:29:48.533Z,9.27
2022-08-22T16:32:23.545Z,6.47
2022-08-22T16:34:50.351Z,8.45
2022-08-22T16:37:47.057Z,11.05
2022-08-22T16:40:23.377Z,7.55
2022-08-22T16:43:09.466Z,7.82
2022-08-22T16:45:48.602Z,9.70
2022-08-22T16:48:35.680Z,9.10
2022-08-22T16:51:06.374Z,7.72
2022-08-22T16:53:35.638Z,8.10
2022-08-22T16:56:24.595Z,7.30
2022-08-22T16:59:22.523Z,12.57
2022-08-22T17:01:55.940Z,12.43
2022-08-22T17:04:37.983Z,11.52
2022-08-22T17:07:14.687Z,9.43
2022-08-22T17:10:04.361Z,6.97
2022-08-22T17:12:54.640Z,12.20
2022-08-22T17:15:34.408Z,8.68
2022-08-22T17:18:12.277Z,11.75
2022-08-22T17:21:11.514Z,9.85
2022-08-22T17:24:02.084Z,12.48
2022-08-22T17:26:48.318Z,8.30
2022-08-22T17:29:30.124Z,7.47
2022-08-22T17:32:16.426Z,12.40
2022-08-22T17:34:56.229Z,9.77
2022-08-22T17:37:32.358Z,8.00
2022-08-22T17:40:20.427Z,7.88
2022-08-22T17:43:12.639Z,8.00
2022-08-22T17:45:46.114Z,10.93
2022-08-22T17:48:25.791Z,8.05
2022-08-22T17:50:57.122Z,7.25
2022-08-22T17:53:36.479Z,7.72
2022-08-22T17:56:09.145Z,9.85
2022-08-22T17:58:45.288Z,5.70
2022-08-22T18:01:34.505Z,8.25
2022-08-22T18:04:04.183Z,6.60
2022-08-22T18:06:34.614Z,7.13
2022-08-22T18:09:16.568Z,8.52
2022-08-22T18:11:57.923Z,6.97
2022-08-22T18:14:40.719Z,8.38
2022-08-22T18:17:19.506Z,7.55
2022-08-22T18:19:58.241Z,6.93
2022-08-22T18:22:24.728Z,5.97
2022-08-22T18:25:17.172Z,9.82
2022-08-22T18:27:55.277Z,8.38
2022-08-22T18:30:24.917Z,7.18
2022-08-22T18:33:19.319Z,7.27
2022-08-22T18:35:54.467Z,7.15
2022-08-22T18:38:31.277Z,6.22
2022-08-22T18:41:23.099Z,6.97
2022-08-22T18:43:52.808Z,6.03
2022-08-22T18:46:29.067Z,8.18
2022-08-22T18:49:14.578Z,7.00
2022-08-22T18:51:42.070Z,6.10
2022-08-22T18:54:08.546Z,5.20
2022-08-22T18:57:26.470Z,7.18
2022-08-22T19:00:01.874Z,6.97
2022-08-22T19:02:37.245Z,7.45
2022-08-22T19:05:12.041Z,6.70
2022-08-22T19:08:05.217Z,5.30
2022-08-22T19:11:25.409Z,7.57
2022-08-22T19:14:05.662Z,7.95
2022-08-22T19:17:01.952Z,6.40
2022-08-22T19:20:16.635Z,4.80
2022-08-22T19:22:43.936Z,5.35
2022-08-22T19:25:26.959Z,5.22
2022-08-22T19:28:11.468Z,5.47
2022-08-22T19:30:47.459Z,8.27
2022-08-22T19:33:34.583Z,3.80
2022-08-22T19:36:29.833Z,6.20
2022-08-22T19:39:09.575Z,7.28
2022-08-22T19:41:46.563Z,3.78
2022-08-22T19:44:19.037Z,5.47
2022-08-22T19:47:05.112Z,6.77
2022-08-22T19:49:36.319Z,3.80
2022-08-22T19:52:17.607Z,4.22
2022-08-22T19:55:07.291Z,5.53
2022-08-22T19:57:52.029Z,5.50
2022-08-22T20:00:41.325Z,6.90
2022-08-22T20:03:37.497Z,5.47
2022-08-22T20:06:43.408Z,4.95
2022-08-22T20:09:44.113Z,5.82
2022-08-22T20:12:24.660Z,5.28
2022-08-22T20:14:51.355Z,5.05
2022-08-22T20:17:23.856Z,5.10
2022-08-22T20:22:45.715Z,5.03
2022-08-22T20:25:42.643Z,5.70
2022-08-22T20:28:32.240Z,5.38
2022-08-22T20:31:01.320Z,5.60
2022-08-22T20:33:33.276Z,3.28
2022-08-22T20:36:02.959Z,4.13
2022-08-22T20:38:35.907Z,3.42
2022-08-22T20:41:16.145Z,3.63
2022-08-22T20:43:55.939Z,5.35
2022-08-22T20:46:28.673Z,4.38
2022-08-22T20:48:55.831Z,5.95
2022-08-22T20:51:25.115Z,4.97
2022-08-22T20:54:10.284Z,2.72
2022-08-22T20:56:52.875Z,4.72
2022-08-22T20:59:41.729Z,3.65
2022-08-22T21:02:19.111Z,2.70
2022-08-22T21:05:01.110Z,4.00
2022-08-22T21:07:37.194Z,4.43
2022-08-22T21:10:35.996Z,4.30
2022-08-22T21:13:24.549Z,5.38
2022-08-22T21:16:02.633Z,6.13
2022-08-22T21:18:35.098Z,3.70
2022-08-22T21:21:26.577Z,5.63
2022-08-22T21:24:01.007Z,3.53
2022-08-22T21:26:36.487Z,3.92
2022-08-22T21:29:20.960Z,3.90
2022-08-22T21:31:53.299Z,4.78
2022-08-22T21:34:31.868Z,5.83
2022-08-22T21:37:07.904Z,5.07
2022-08-22T21:39:36.672Z,5.20
2022-08-22T21:42:03.175Z,4.72
2022-08-22T21:44:35.494Z,4.20
2022-08-22T21:47:30.589Z,4.50
2022-08-22T21:50:20.821Z,4.18
2022-08-22T21:52:56.206Z,5.05
2022-08-22T21:55:34.460Z,4.57
2022-08-22T21:58:07.184Z,5.65
2022-08-22T22:00:59.465Z,5.13
2022-08-22T22:03:37.085Z,5.75
2022-08-22T22:06:06.225Z,6.47
2022-08-22T22:08:33.420Z,5.50
2022-08-22T22:11:02.320Z,3.95
2022-08-22T22:13:31.591Z,4.30
2022-08-22T22:15:58.200Z,5.55
2022-08-22T22:18:27.056Z,7.70
2022-08-22T22:20:54.863Z,4.75
2022-08-22T22:23:22.386Z,3.60
2022-08-22T22:25:49.819Z,4.97
2022-08-22T22:28:16.304Z,3.95
2022-08-22T22:30:43.861Z,6.32
2022-08-22T22:33:10.880Z,4.10
2022-08-22T22:35:39.422Z,4.50
2022-08-22T22:38:06.689Z,4.03
2022-08-22T22:40:33.348Z,4.18
2022-08-22T22:43:00.009Z,4.63
2022-08-22T22:45:26.676Z,4.28
2022-08-22T22:47:53.392Z,5.35
2022-08-22T22:50:20.063Z,4.65
2022-08-22T22:52:46.639Z,6.05
2022-08-22T22:55:13.213Z,6.07
2022-08-22T22:57:58.452Z,5.78
2022-08-22T23:00:25.822Z,5.25
2022-08-22T23:02:58.195Z,5.50
2022-08-22T23:05:24.747Z,6.15
2022-08-22T23:07:51.304Z,3.88
2022-08-22T23:10:21.910Z,6.00
2022-08-22T23:12:48.934Z,4.70
2022-08-22T23:15:15.604Z,5.72
2022-08-22T23:17:42.639Z,4.40
2022-08-22T23:20:09.510Z,6.38
2022-08-22T23:22:36.241Z,5.53
2022-08-22T23:25:02.951Z,4.40
2022-08-22T23:27:31.375Z,4.18
2022-08-22T23:29:57.949Z,5.38
2022-08-22T23:32:24.585Z,4.68
2022-08-22T23:34:51.300Z,4.10
2022-08-22T23:37:20.947Z,6.38
2022-08-22T23:39:48.538Z,4.82
2022-08-22T23:42:15.898Z,4.35
2022-08-22T23:44:45.164Z,4.78
2022-08-22T23:47:13.340Z,4.95
2022-08-22T23:49:41.110Z,4.07
2022-08-22T23:52:09.386Z,4.80
2022-08-22T23:54:36.046Z,5.18
2022-08-22T23:57:11.876Z,5.53
2022-08-22T23:59:43.508Z,3.63
